createdAt,value
2018-09-19T00:01:40.547Z,212.00
2018-09-19T00:02:39.998Z,204.00
2018-09-19T00:04:33.662Z,196.00
2018-09-19T00:05:33.651Z,196.00
2018-09-19T00:07:27.988Z,188.00
2018-09-19T00:08:27.414Z,188.00
2018-09-19T00:10:20.772Z,184.00
2018-09-19T00:11:21.122Z,184.00
2018-09-19T00:13:14.402Z,192.00
2018-09-19T00:14:14.101Z,196.00
2018-09-19T00:16:07.439Z,208.00
2018-09-19T00:17:07.431Z,208.00
2018-09-19T00:19:00.920Z,208.00
2018-09-19T00:20:01.171Z,204.00
2018-09-19T00:21:54.151Z,192.00
2018-09-19T00:22:54.447Z,200.00
2018-09-19T00:24:47.695Z,196.00
2018-09-19T00:25:47.444Z,196.00
2018-09-19T00:26:47.469Z,220.00
2018-09-19T00:27:47.471Z,256.00
2018-09-19T00:28:47.449Z,284.00
2018-09-19T00:29:47.757Z,304.00
2018-09-19T00:30:47.418Z,316.00
2018-09-19T00:31:47.399Z,340.00
2018-09-19T00:32:47.390Z,352.00
2018-09-19T00:33:47.370Z,356.00
2018-09-19T00:34:47.380Z,344.00
2018-09-19T00:35:47.362Z,356.00
2018-09-19T00:36:47.368Z,340.00
2018-09-19T00:37:47.348Z,328.00
2018-09-19T00:38:47.335Z,312.00
2018-09-19T00:39:47.669Z,308.00
2018-09-19T00:40:47.319Z,276.00
2018-09-19T00:41:47.314Z,288.00
2018-09-19T00:42:47.313Z,280.00
2018-09-19T00:43:47.650Z,272.00
2018-09-19T00:44:47.640Z,260.00
2018-09-19T00:45:47.616Z,252.00
2018-09-19T00:46:47.262Z,252.00
2018-09-19T00:47:47.596Z,256.00
2018-09-19T00:48:47.266Z,248.00
2018-09-19T00:49:47.240Z,244.00
2018-09-19T00:50:47.262Z,244.00
2018-09-19T00:51:47.222Z,248.00
2018-09-19T00:52:47.210Z,256.00
2018-09-19T00:53:47.206Z,264.00
2018-09-19T00:54:47.544Z,276.00
2018-09-19T00:55:47.190Z,296.00
2018-09-19T00:56:47.185Z,320.00
2018-09-19T00:57:47.190Z,332.00
2018-09-19T00:58:47.164Z,356.00
2018-09-19T00:59:47.185Z,376.00
2018-09-19T01:00:47.143Z,400.00
2018-09-19T01:01:47.137Z,416.00
2018-09-19T01:02:47.130Z,432.00
2018-09-19T01:03:47.151Z,444.00
2018-09-19T01:04:47.114Z,452.00
2018-09-19T01:05:47.466Z,464.00
2018-09-19T01:06:47.104Z,492.00
2018-09-19T01:07:47.083Z,508.00
2018-09-19T01:08:47.431Z,532.00
2018-09-19T01:09:47.074Z,556.00
2018-09-19T01:10:47.064Z,568.00
2018-09-19T01:11:47.060Z,576.00
2018-09-19T01:12:47.056Z,580.00
2018-09-19T01:13:47.378Z,592.00
2018-09-19T01:14:47.029Z,600.00
2018-09-19T01:15:47.018Z,608.00
2018-09-19T01:16:47.023Z,628.00
2018-09-19T01:17:47.001Z,628.00
2018-09-19T01:18:47.340Z,636.00
2018-09-19T01:19:46.996Z,640.00
2018-09-19T01:20:46.977Z,644.00
2018-09-19T01:21:46.970Z,636.00
2018-09-19T01:22:46.960Z,636.00
2018-09-19T01:23:46.957Z,644.00
2018-09-19T01:24:46.963Z,648.00
2018-09-19T01:25:46.943Z,656.00
2018-09-19T01:26:46.931Z,656.00
2018-09-19T01:27:46.937Z,656.00
2018-09-19T01:28:46.912Z,656.00
2018-09-19T01:29:46.949Z,672.00
2018-09-19T01:30:47.237Z,664.00
2018-09-19T01:31:46.889Z,660.00
2018-09-19T01:32:46.885Z,660.00
2018-09-19T01:33:47.210Z,660.00
2018-09-19T01:34:46.887Z,660.00
2018-09-19T01:35:46.863Z,660.00
2018-09-19T01:36:46.849Z,660.00
2018-09-19T01:37:46.835Z,652.00
2018-09-19T01:38:46.835Z,652.00
2018-09-19T01:39:46.821Z,640.00
2018-09-19T01:40:46.884Z,628.00
2018-09-19T01:41:46.802Z,628.00
2018-09-19T01:42:46.799Z,628.00
2018-09-19T01:43:47.125Z,608.00
2018-09-19T01:44:46.777Z,488.00
2018-09-19T01:45:47.110Z,588.00
2018-09-19T01:46:47.102Z,440.00
2018-09-19T01:47:46.754Z,528.00
2018-09-19T01:48:47.087Z,512.00
2018-09-19T01:49:46.767Z,444.00
2018-09-19T01:50:46.738Z,472.00
2018-09-19T01:51:46.719Z,484.00
2018-09-19T01:52:46.715Z,516.00
2018-09-19T01:53:47.064Z,536.00
2018-09-19T01:54:47.036Z,528.00
2018-09-19T01:55:46.680Z,584.00
2018-09-19T01:56:46.683Z,576.00
2018-09-19T01:57:46.675Z,616.00
2018-09-19T01:58:46.657Z,624.00
2018-09-19T01:59:46.651Z,624.00
2018-09-19T02:00:47.009Z,628.00
2018-09-19T02:01:46.668Z,624.00
2018-09-19T02:02:46.637Z,636.00
2018-09-19T02:03:46.625Z,764.00
2018-09-19T02:04:46.952Z,840.00
2018-09-19T02:05:46.604Z,832.00
2018-09-19T02:06:46.596Z,704.00
2018-09-19T02:07:46.595Z,716.00
2018-09-19T02:08:46.578Z,768.00
2018-09-19T02:09:46.570Z,768.00
2018-09-19T02:10:46.576Z,720.00
2018-09-19T02:11:46.551Z,688.00
2018-09-19T02:12:46.547Z,720.00
2018-09-19T02:13:46.883Z,760.00
2018-09-19T02:14:46.536Z,748.00
2018-09-19T02:15:46.867Z,748.00
2018-09-19T02:16:46.851Z,808.00
2018-09-19T02:17:46.505Z,788.00
2018-09-19T02:18:46.513Z,716.00
2018-09-19T02:19:46.517Z,660.00
2018-09-19T02:20:46.482Z,724.00
2018-09-19T02:21:46.483Z,756.00
2018-09-19T02:22:46.507Z,784.00
2018-09-19T02:23:46.813Z,784.00
2018-09-19T02:24:46.449Z,784.00
2018-09-19T02:25:46.442Z,780.00
2018-09-19T02:26:46.433Z,780.00
2018-09-19T02:27:46.428Z,780.00
2018-09-19T02:28:46.437Z,772.00
2018-09-19T02:29:46.412Z,772.00
2018-09-19T02:30:46.753Z,764.00
2018-09-19T02:31:46.396Z,764.00
2018-09-19T02:32:46.384Z,756.00
2018-09-19T02:33:46.370Z,752.00
2018-09-19T02:34:46.371Z,752.00
2018-09-19T02:35:46.379Z,748.00
2018-09-19T02:36:46.355Z,728.00
2018-09-19T02:37:46.375Z,736.00
2018-09-19T02:38:46.675Z,724.00
2018-09-19T02:39:46.323Z,728.00
2018-09-19T02:40:46.315Z,688.00
2018-09-19T02:41:46.320Z,704.00
2018-09-19T02:42:46.304Z,704.00
2018-09-19T02:43:46.309Z,640.00
2018-09-19T02:44:46.289Z,552.00
2018-09-19T02:45:46.291Z,476.00
2018-09-19T02:46:46.278Z,496.00
2018-09-19T02:47:46.266Z,448.00
2018-09-19T02:48:46.259Z,420.00
2018-09-19T02:49:46.240Z,428.00
2018-09-19T02:50:46.243Z,404.00
2018-09-19T02:51:46.222Z,472.00
2018-09-19T02:54:18.522Z,644.00
2018-09-19T02:55:18.291Z,576.00
2018-09-19T02:57:12.692Z,600.00
2018-09-19T03:00:05.171Z,644.00
2018-09-19T03:01:05.306Z,644.00
2018-09-19T03:02:58.299Z,608.00
2018-09-19T03:03:58.288Z,636.00
2018-09-19T03:05:51.861Z,648.00
2018-09-19T03:08:23.689Z,612.00
2018-09-19T03:09:23.700Z,604.00
2018-09-19T03:11:17.292Z,592.00
2018-09-19T03:12:16.577Z,588.00
2018-09-19T03:14:09.935Z,560.00
2018-09-19T03:15:09.920Z,564.00
2018-09-19T03:17:03.633Z,544.00
2018-09-19T03:19:56.697Z,528.00
2018-09-19T03:20:56.656Z,516.00
2018-09-19T03:22:50.503Z,508.00
2018-09-19T03:23:49.980Z,504.00
2018-09-19T03:25:43.734Z,492.00
2018-09-19T03:26:43.361Z,484.00
2018-09-19T03:28:37.290Z,480.00
2018-09-19T03:29:37.107Z,472.00
2018-09-19T03:31:30.108Z,464.00
2018-09-19T03:32:30.098Z,464.00
2018-09-19T03:35:55.781Z,452.00
2018-09-19T03:36:55.516Z,444.00
2018-09-19T03:38:49.471Z,444.00
2018-09-19T03:39:48.883Z,436.00
2018-09-19T03:41:42.374Z,440.00
2018-09-19T03:42:42.201Z,432.00
2018-09-19T03:44:35.572Z,428.00
2018-09-19T03:45:35.556Z,420.00
2018-09-19T03:47:29.130Z,412.00
2018-09-19T03:48:28.897Z,400.00
2018-09-19T03:50:22.260Z,396.00
2018-09-19T03:51:22.293Z,392.00
2018-09-19T03:53:15.876Z,392.00
2018-09-19T03:54:15.591Z,388.00
2018-09-19T03:56:08.955Z,384.00
2018-09-19T03:57:08.950Z,380.00
2018-09-19T03:59:03.334Z,388.00
2018-09-19T04:00:02.298Z,384.00
2018-09-19T04:01:55.981Z,384.00
2018-09-19T04:02:55.658Z,376.00
2018-09-19T04:04:49.147Z,384.00
2018-09-19T04:05:48.973Z,384.00
2018-09-19T04:07:42.853Z,388.00
2018-09-19T04:08:42.879Z,384.00
2018-09-19T04:10:44.456Z,420.00
2018-09-19T04:11:36.187Z,416.00
2018-09-19T04:13:29.556Z,392.00
2018-09-19T04:14:29.878Z,396.00
2018-09-19T04:16:24.683Z,396.00
2018-09-19T04:19:16.693Z,384.00
2018-09-19T04:20:16.231Z,384.00
2018-09-19T04:22:09.779Z,380.00
2018-09-19T04:23:09.593Z,384.00
2018-09-19T04:25:02.933Z,372.00
2018-09-19T04:26:02.931Z,388.00
2018-09-19T04:27:56.509Z,384.00
2018-09-19T04:28:56.279Z,388.00
2018-09-19T04:30:50.220Z,376.00
2018-09-19T04:33:22.179Z,392.00
2018-09-19T04:34:22.043Z,380.00
2018-09-19T04:36:15.017Z,380.00
2018-09-19T04:37:15.341Z,368.00
2018-09-19T04:39:08.526Z,348.00
2018-09-19T04:40:08.364Z,372.00
2018-09-19T04:42:02.144Z,392.00
2018-09-19T04:43:01.696Z,396.00
2018-09-19T04:44:55.270Z,408.00
2018-09-19T04:45:55.371Z,392.00
2018-09-19T04:47:48.388Z,388.00
2018-09-19T04:48:48.375Z,380.00
2018-09-19T04:50:41.923Z,372.00
2018-09-19T04:51:41.763Z,364.00
2018-09-19T04:53:35.073Z,356.00
2018-09-19T04:54:35.058Z,368.00
2018-09-19T04:57:28.409Z,392.00
2018-09-19T04:59:22.099Z,400.00
2018-09-19T05:00:21.748Z,400.00
2018-09-19T05:02:15.332Z,396.00
2018-09-19T05:03:15.089Z,392.00
2018-09-19T05:05:08.883Z,396.00
2018-09-19T05:06:07.952Z,388.00
2018-09-19T05:08:01.547Z,412.00
2018-09-19T05:09:01.312Z,400.00
2018-09-19T05:12:26.729Z,388.00
2018-09-19T05:13:26.714Z,380.00
2018-09-19T05:15:21.029Z,368.00
2018-09-19T05:16:20.058Z,352.00
2018-09-19T05:18:13.744Z,356.00
2018-09-19T05:19:13.401Z,328.00
2018-09-19T05:21:07.351Z,340.00
2018-09-19T05:22:06.738Z,332.00
2018-09-19T05:24:00.103Z,364.00
2018-09-19T05:25:00.425Z,356.00
2018-09-19T05:26:53.639Z,380.00
2018-09-19T05:27:53.768Z,372.00
2018-09-19T05:29:46.805Z,364.00
2018-09-19T05:30:46.769Z,364.00
2018-09-19T05:32:40.355Z,352.00
2018-09-19T05:33:40.122Z,348.00
2018-09-19T05:35:33.829Z,356.00
2018-09-19T05:36:33.825Z,364.00
2018-09-19T05:38:27.147Z,364.00
2018-09-19T05:39:26.680Z,392.00
2018-09-19T05:40:26.324Z,404.00
2018-09-19T05:42:58.372Z,412.00
2018-09-19T05:43:58.356Z,416.00
2018-09-19T05:45:51.891Z,404.00
2018-09-19T05:46:51.705Z,412.00
2018-09-19T05:48:45.050Z,432.00
2018-09-19T05:49:45.048Z,436.00
2018-09-19T05:51:38.589Z,452.00
2018-09-19T05:52:38.383Z,440.00
2018-09-19T05:54:31.770Z,464.00
2018-09-19T05:55:32.092Z,432.00
2018-09-19T05:57:25.215Z,424.00
2018-09-19T05:58:25.092Z,416.00
2018-09-19T06:00:18.785Z,392.00
2018-09-19T06:01:18.410Z,376.00
2018-09-19T06:03:12.238Z,364.00
2018-09-19T06:04:11.751Z,360.00
2018-09-19T06:06:04.644Z,364.00
2018-09-19T06:07:04.628Z,360.00
2018-09-19T06:08:59.053Z,352.00
2018-09-19T06:09:58.484Z,344.00
2018-09-19T06:13:23.950Z,360.00
2018-09-19T06:14:23.919Z,384.00
2018-09-19T06:16:17.557Z,384.00
2018-09-19T06:17:17.257Z,364.00
2018-09-19T06:19:10.603Z,344.00
2018-09-19T06:20:10.932Z,336.00
2018-09-19T06:22:04.109Z,328.00
2018-09-19T06:23:03.929Z,332.00
2018-09-19T06:24:57.647Z,368.00
2018-09-19T06:25:57.614Z,396.00
2018-09-19T06:27:51.176Z,412.00
2018-09-19T06:28:50.961Z,412.00
2018-09-19T06:30:44.105Z,432.00
2018-09-19T06:31:44.089Z,460.00
2018-09-19T06:33:37.657Z,432.00
2018-09-19T06:34:37.771Z,404.00
2018-09-19T06:36:30.786Z,392.00
2018-09-19T06:37:30.778Z,388.00
2018-09-19T06:39:24.322Z,380.00
2018-09-19T06:40:24.215Z,392.00
2018-09-19T06:42:17.466Z,392.00
2018-09-19T06:43:17.459Z,388.00
2018-09-19T06:45:10.538Z,420.00
2018-09-19T06:46:10.321Z,404.00
2018-09-19T06:48:04.117Z,408.00
2018-09-19T06:50:57.250Z,368.00
2018-09-19T06:51:57.060Z,360.00
2018-09-19T06:53:50.816Z,360.00
2018-09-19T06:54:50.360Z,352.00
2018-09-19T06:58:15.766Z,344.00
2018-09-19T06:59:15.765Z,344.00
2018-09-19T07:01:09.710Z,340.00
2018-09-19T07:02:09.453Z,344.00
2018-09-19T07:04:03.064Z,348.00
2018-09-19T07:05:02.797Z,348.00
2018-09-19T07:06:56.312Z,344.00
2018-09-19T07:07:56.166Z,336.00
2018-09-19T07:09:49.679Z,328.00
2018-09-19T07:10:49.820Z,336.00
2018-09-19T07:11:49.805Z,336.00
2018-09-19T07:12:49.465Z,340.00
2018-09-19T07:13:49.812Z,340.00
2018-09-19T07:16:21.705Z,324.00
2018-09-19T07:17:21.853Z,324.00
2018-09-19T07:19:15.449Z,312.00
2018-09-19T07:20:15.198Z,304.00
2018-09-19T07:22:08.291Z,300.00
2018-09-19T07:23:08.521Z,300.00
2018-09-19T07:25:01.679Z,300.00
2018-09-19T07:26:01.889Z,296.00
2018-09-19T07:27:56.018Z,300.00
2018-09-19T07:28:54.879Z,304.00
2018-09-19T07:30:48.565Z,296.00
2018-09-19T07:31:48.556Z,300.00
2018-09-19T07:33:41.693Z,300.00
2018-09-19T07:34:41.563Z,300.00
2018-09-19T07:36:35.004Z,300.00
2018-09-19T07:37:35.241Z,304.00
2018-09-19T07:39:28.802Z,316.00
2018-09-19T07:40:28.347Z,320.00
2018-09-19T07:42:21.618Z,320.00
2018-09-19T07:43:21.586Z,308.00
2018-09-19T07:45:15.168Z,324.00
2018-09-19T07:46:15.294Z,324.00
2018-09-19T07:49:40.345Z,332.00
2018-09-19T07:50:40.693Z,328.00
2018-09-19T07:52:33.863Z,324.00
2018-09-19T07:53:34.020Z,316.00
2018-09-19T07:55:27.489Z,324.00
2018-09-19T07:56:27.033Z,320.00
2018-09-19T07:58:21.166Z,312.00
2018-09-19T07:59:20.725Z,308.00
2018-09-19T08:01:13.816Z,312.00
2018-09-19T08:02:13.710Z,320.00
2018-09-19T08:04:07.237Z,312.00
2018-09-19T08:05:07.045Z,308.00
2018-09-19T08:07:00.409Z,312.00
2018-09-19T08:08:00.390Z,316.00
2018-09-19T08:09:55.065Z,324.00
2018-09-19T08:10:54.600Z,328.00
2018-09-19T08:12:47.612Z,332.00
2018-09-19T08:13:47.603Z,332.00
2018-09-19T08:17:13.183Z,340.00
2018-09-19T08:18:13.006Z,344.00
2018-09-19T08:20:06.371Z,332.00
2018-09-19T08:21:06.351Z,332.00
2018-09-19T08:22:59.841Z,340.00
2018-09-19T08:23:59.702Z,328.00
2018-09-19T08:25:53.506Z,328.00
2018-09-19T08:26:53.047Z,324.00
2018-09-19T08:28:46.645Z,320.00
2018-09-19T08:29:46.382Z,312.00
2018-09-19T08:31:39.284Z,316.00
2018-09-19T08:32:39.262Z,316.00
2018-09-19T08:33:39.247Z,320.00
2018-09-19T08:34:39.241Z,324.00
2018-09-19T08:35:39.258Z,324.00
2018-09-19T08:36:39.566Z,324.00
2018-09-19T08:37:39.555Z,324.00
2018-09-19T08:38:39.567Z,328.00
2018-09-19T08:39:39.200Z,328.00
2018-09-19T08:40:39.531Z,324.00
2018-09-19T08:41:39.545Z,320.00
2018-09-19T08:42:39.176Z,324.00
2018-09-19T08:44:39.160Z,320.00
2018-09-19T08:45:39.151Z,320.00
2018-09-19T08:46:39.142Z,316.00
2018-09-19T08:47:39.136Z,316.00
2018-09-19T08:48:39.127Z,312.00
2018-09-19T08:49:39.119Z,312.00
2018-09-19T08:50:39.473Z,316.00
2018-09-19T08:51:39.776Z,308.00
2018-09-19T08:52:39.111Z,316.00
2018-09-19T08:53:39.092Z,312.00
2018-09-19T08:54:39.417Z,308.00
2018-09-19T08:55:39.099Z,312.00
2018-09-19T08:56:39.423Z,312.00
2018-09-19T08:57:39.057Z,312.00
2018-09-19T08:58:39.054Z,312.00
2018-09-19T08:59:39.038Z,312.00
2018-09-19T09:01:39.029Z,308.00
2018-09-19T09:02:39.009Z,312.00
2018-09-19T09:03:39.035Z,300.00
2018-09-19T09:04:39.354Z,292.00
2018-09-19T09:05:38.996Z,284.00
2018-09-19T09:06:39.008Z,276.00
2018-09-19T09:07:38.971Z,264.00
2018-09-19T09:08:38.970Z,264.00
2018-09-19T09:09:38.950Z,264.00
2018-09-19T09:10:38.990Z,268.00
2018-09-19T09:11:39.273Z,272.00
2018-09-19T09:12:39.299Z,268.00
2018-09-19T09:13:38.923Z,276.00
2018-09-19T09:14:39.808Z,280.00
2018-09-19T09:15:38.908Z,284.00
2018-09-19T09:16:39.258Z,288.00
2018-09-19T09:17:39.228Z,292.00
2018-09-19T09:18:38.879Z,292.00
2018-09-19T09:19:38.879Z,288.00
2018-09-19T09:20:39.227Z,288.00
2018-09-19T09:23:11.083Z,276.00
2018-09-19T09:24:11.243Z,272.00
2018-09-19T09:26:04.407Z,276.00
2018-09-19T09:27:04.646Z,272.00
2018-09-19T09:28:04.582Z,268.00
2018-09-19T09:29:04.228Z,272.00
2018-09-19T09:30:04.576Z,268.00
2018-09-19T09:31:04.225Z,272.00
2018-09-19T09:32:04.199Z,272.00
2018-09-19T09:33:04.205Z,272.00
2018-09-19T09:34:04.556Z,272.00
2018-09-19T09:35:04.183Z,272.00
2018-09-19T09:36:04.520Z,276.00
2018-09-19T09:37:04.504Z,268.00
2018-09-19T09:38:04.157Z,272.00
2018-09-19T09:39:04.489Z,272.00
2018-09-19T09:40:04.490Z,268.00
2018-09-19T09:41:04.135Z,264.00
2018-09-19T09:42:04.135Z,264.00
2018-09-19T09:43:04.476Z,264.00
2018-09-19T09:44:04.114Z,256.00
2018-09-19T09:45:04.105Z,256.00
2018-09-19T09:46:04.490Z,252.00
2018-09-19T09:47:04.084Z,252.00
2018-09-19T09:48:04.084Z,248.00
2018-09-19T09:49:04.426Z,248.00
2018-09-19T09:50:04.075Z,252.00
2018-09-19T09:51:04.056Z,248.00
2018-09-19T09:52:04.053Z,252.00
2018-09-19T09:53:04.401Z,244.00
2018-09-19T09:54:04.640Z,248.00
2018-09-19T09:55:04.024Z,248.00
2018-09-19T09:56:04.016Z,244.00
2018-09-19T09:57:04.001Z,244.00
2018-09-19T09:58:03.998Z,248.00
2018-09-19T09:59:03.986Z,248.00
2018-09-19T10:00:04.323Z,248.00
2018-09-19T10:01:03.996Z,244.00
2018-09-19T10:02:03.966Z,244.00
2018-09-19T10:03:03.961Z,248.00
2018-09-19T10:04:03.948Z,240.00
2018-09-19T10:05:04.280Z,240.00
2018-09-19T10:06:03.926Z,240.00
2018-09-19T10:08:04.274Z,20.00
2018-09-19T10:09:03.906Z,16.00
2018-09-19T10:10:03.892Z,16.00
2018-09-19T10:11:03.886Z,16.00
2018-09-19T10:12:04.222Z,16.00
2018-09-19T10:13:04.713Z,16.00
2018-09-19T10:14:03.898Z,12.00
2018-09-19T10:15:04.219Z,12.00
2018-09-19T10:16:03.888Z,12.00
2018-09-19T10:17:03.863Z,12.00
2018-09-19T10:18:03.831Z,8.00
2018-09-19T10:19:04.187Z,8.00
2018-09-19T10:20:04.171Z,12.00
2018-09-19T10:21:03.806Z,12.00
2018-09-19T10:22:03.809Z,8.00
2018-09-19T10:23:04.157Z,8.00
2018-09-19T10:24:03.779Z,8.00
2018-09-19T10:25:03.766Z,8.00
2018-09-19T10:26:04.146Z,8.00
2018-09-19T10:27:03.756Z,8.00
2018-09-19T10:28:03.747Z,8.00
2018-09-19T10:29:04.084Z,8.00
2018-09-19T10:30:04.074Z,4.00
2018-09-19T10:31:03.737Z,4.00
2018-09-19T10:32:04.063Z,4.00
2018-09-19T10:33:04.051Z,4.00
2018-09-19T10:34:03.718Z,4.00
2018-09-19T10:35:03.693Z,4.00
2018-09-19T10:36:03.680Z,0.00
2018-09-19T10:37:03.686Z,4.00
2018-09-19T10:38:04.007Z,4.00
2018-09-19T10:39:03.666Z,4.00
2018-09-19T10:40:03.663Z,4.00
2018-09-19T10:41:03.650Z,4.00
2018-09-19T10:42:03.644Z,0.00
2018-09-19T10:43:03.640Z,4.00
2018-09-19T10:44:03.688Z,0.00
2018-09-19T10:45:03.619Z,0.00
2018-09-19T10:46:03.612Z,0.00
2018-09-19T10:47:03.606Z,0.00
2018-09-19T10:48:03.600Z,0.00
2018-09-19T10:49:03.579Z,0.00
2018-09-19T10:50:03.579Z,0.00
2018-09-19T10:51:03.574Z,0.00
2018-09-19T10:52:03.566Z,0.00
2018-09-19T10:53:03.551Z,0.00
2018-09-19T10:54:03.544Z,0.00
2018-09-19T10:55:03.876Z,0.00
2018-09-19T10:56:03.535Z,0.00
2018-09-19T10:57:03.922Z,0.00
2018-09-19T10:58:03.868Z,0.00
2018-09-19T10:59:03.508Z,0.00
2018-09-19T11:00:03.524Z,0.00
2018-09-19T11:01:03.489Z,0.00
2018-09-19T11:02:03.812Z,0.00
2018-09-19T11:03:03.831Z,0.00
2018-09-19T11:04:03.461Z,0.00
2018-09-19T11:05:03.457Z,0.00
2018-09-19T11:06:03.477Z,0.00
2018-09-19T11:07:03.771Z,0.00
2018-09-19T11:08:03.433Z,0.00
2018-09-19T11:09:03.796Z,0.00
2018-09-19T11:10:03.420Z,0.00
2018-09-19T11:11:03.406Z,0.00
2018-09-19T11:12:03.730Z,0.00
2018-09-19T11:13:03.385Z,0.00
2018-09-19T11:14:03.731Z,0.00
2018-09-19T11:15:03.373Z,0.00
2018-09-19T11:16:03.361Z,0.00
2018-09-19T11:17:03.356Z,0.00
2018-09-19T11:18:03.346Z,0.00
2018-09-19T11:19:03.385Z,0.00
2018-09-19T11:20:03.326Z,0.00
2018-09-19T11:21:03.314Z,0.00
2018-09-19T11:22:03.320Z,0.00
2018-09-19T11:23:03.303Z,0.00
2018-09-19T11:24:03.297Z,0.00
2018-09-19T11:25:03.285Z,0.00
2018-09-19T11:26:03.632Z,0.00
2018-09-19T11:27:03.269Z,0.00
2018-09-19T11:28:03.254Z,0.00
2018-09-19T11:29:03.256Z,0.00
2018-09-19T11:30:03.358Z,0.00
2018-09-19T11:31:03.237Z,0.00
2018-09-19T11:32:03.226Z,0.00
2018-09-19T11:33:03.214Z,0.00
2018-09-19T11:34:03.543Z,0.00
2018-09-19T11:35:03.209Z,0.00
2018-09-19T11:36:03.531Z,0.00
2018-09-19T11:37:03.190Z,0.00
2018-09-19T11:38:03.172Z,0.00
2018-09-19T11:39:03.172Z,0.00
2018-09-19T11:40:03.163Z,0.00
2018-09-19T11:41:03.150Z,0.00
2018-09-19T11:42:03.137Z,0.00
2018-09-19T11:43:03.141Z,0.00
2018-09-19T11:44:03.138Z,0.00
2018-09-19T11:45:03.452Z,0.00
2018-09-19T11:46:03.136Z,0.00
2018-09-19T11:47:03.442Z,0.00
2018-09-19T11:48:03.093Z,0.00
2018-09-19T11:49:03.088Z,0.00
2018-09-19T11:50:03.082Z,0.00
2018-09-19T11:51:03.081Z,0.00
2018-09-19T11:52:03.075Z,0.00
2018-09-19T11:53:03.402Z,0.00
2018-09-19T11:54:03.045Z,0.00
2018-09-19T11:55:03.371Z,0.00
2018-09-19T11:56:03.033Z,0.00
2018-09-19T11:57:03.360Z,0.00
2018-09-19T11:58:03.022Z,0.00
2018-09-19T11:59:03.374Z,0.00
2018-09-19T12:00:02.997Z,0.00
2018-09-19T12:01:03.321Z,0.00
2018-09-19T12:02:03.027Z,0.00
2018-09-19T12:03:03.306Z,0.00
2018-09-19T12:04:03.298Z,0.00
2018-09-19T12:05:02.951Z,0.00
2018-09-19T12:06:03.283Z,0.00
2018-09-19T12:07:02.931Z,0.00
2018-09-19T12:08:03.285Z,0.00
2018-09-19T12:09:03.258Z,0.00
2018-09-19T12:10:02.916Z,0.00
2018-09-19T12:11:02.907Z,0.00
2018-09-19T12:12:03.231Z,0.00
2018-09-19T12:13:02.889Z,0.00
2018-09-19T12:14:02.905Z,0.00
2018-09-19T12:15:02.870Z,0.00
2018-09-19T12:16:02.862Z,0.00
2018-09-19T12:17:02.848Z,0.00
2018-09-19T12:18:02.840Z,0.00
2018-09-19T12:19:02.836Z,0.00
2018-09-19T12:20:02.826Z,0.00
2018-09-19T12:21:02.823Z,0.00
2018-09-19T12:22:02.833Z,0.00
2018-09-19T12:23:02.831Z,0.00
2018-09-19T12:24:03.122Z,0.00
2018-09-19T12:25:02.784Z,0.00
2018-09-19T12:26:03.132Z,0.00
2018-09-19T12:27:02.766Z,0.00
2018-09-19T12:28:02.761Z,0.00
2018-09-19T12:29:02.753Z,0.00
2018-09-19T12:30:02.952Z,0.00
2018-09-19T12:31:03.084Z,0.00
2018-09-19T12:32:02.731Z,0.00
2018-09-19T12:33:03.051Z,0.00
2018-09-19T12:34:02.708Z,0.00
2018-09-19T12:35:02.710Z,0.00
2018-09-19T12:36:02.697Z,0.00
2018-09-19T12:37:02.686Z,0.00
2018-09-19T12:38:02.682Z,0.00
2018-09-19T12:39:02.667Z,0.00
2018-09-19T12:40:02.668Z,0.00
2018-09-19T12:41:02.659Z,0.00
2018-09-19T12:42:02.977Z,0.00
2018-09-19T12:43:02.652Z,0.00
2018-09-19T12:44:02.965Z,0.00
2018-09-19T12:45:02.616Z,0.00
2018-09-19T12:46:02.943Z,0.00
2018-09-19T12:47:02.602Z,0.00
2018-09-19T12:48:02.618Z,0.00
2018-09-19T12:49:02.589Z,0.00
2018-09-19T12:50:02.586Z,0.00
2018-09-19T12:51:02.571Z,0.00
2018-09-19T12:52:02.911Z,0.00
2018-09-19T12:53:02.582Z,0.00
2018-09-19T12:54:02.552Z,0.00
2018-09-19T12:55:02.871Z,0.00
2018-09-19T12:56:02.548Z,0.00
2018-09-19T12:57:02.520Z,0.00
2018-09-19T12:58:02.839Z,0.00
2018-09-19T12:59:02.838Z,0.00
2018-09-19T13:00:02.836Z,0.00
2018-09-19T13:01:02.480Z,0.00
2018-09-19T13:02:02.476Z,0.00
2018-09-19T13:03:02.805Z,0.00
2018-09-19T13:04:02.453Z,0.00
2018-09-19T13:05:02.802Z,0.00
2018-09-19T13:06:02.443Z,0.00
2018-09-19T13:07:02.779Z,0.00
2018-09-19T13:08:02.432Z,0.00
2018-09-19T13:09:02.757Z,0.00
2018-09-19T13:10:02.409Z,0.00
2018-09-19T13:11:02.406Z,0.00
2018-09-19T13:12:02.385Z,0.00
2018-09-19T13:13:02.386Z,0.00
2018-09-19T13:14:03.383Z,0.00
2018-09-19T13:15:02.357Z,0.00
2018-09-19T13:16:02.384Z,0.00
2018-09-19T13:17:02.343Z,0.00
2018-09-19T13:18:02.349Z,0.00
2018-09-19T13:19:02.683Z,0.00
2018-09-19T13:20:02.328Z,0.00
2018-09-19T13:21:02.350Z,0.00
2018-09-19T13:22:02.313Z,0.00
2018-09-19T13:23:02.303Z,0.00
2018-09-19T13:24:02.617Z,0.00
2018-09-19T13:25:02.313Z,0.00
2018-09-19T13:26:02.625Z,0.00
2018-09-19T13:27:02.264Z,0.00
2018-09-19T13:28:02.252Z,0.00
2018-09-19T13:29:02.248Z,0.00
2018-09-19T13:30:02.242Z,0.00
2018-09-19T13:31:02.226Z,0.00
2018-09-19T13:32:02.557Z,0.00
2018-09-19T13:33:02.211Z,0.00
2018-09-19T13:34:02.559Z,0.00
2018-09-19T13:35:02.538Z,0.00
2018-09-19T13:36:02.189Z,0.00
2018-09-19T13:37:02.172Z,0.00
2018-09-19T13:38:02.167Z,0.00
2018-09-19T13:39:02.159Z,0.00
2018-09-19T13:40:02.485Z,0.00
2018-09-19T13:41:02.148Z,0.00
2018-09-19T13:42:02.470Z,0.00
2018-09-19T13:43:02.138Z,0.00
2018-09-19T13:44:02.114Z,0.00
2018-09-19T13:45:02.445Z,0.00
2018-09-19T13:46:02.107Z,0.00
2018-09-19T13:47:02.112Z,0.00
2018-09-19T13:48:02.087Z,0.00
2018-09-19T13:49:02.409Z,0.00
2018-09-19T13:50:02.072Z,0.00
2018-09-19T13:51:02.393Z,0.00
2018-09-19T13:52:02.056Z,0.00
2018-09-19T13:53:02.071Z,0.00
2018-09-19T13:54:02.388Z,0.00
2018-09-19T13:55:02.358Z,0.00
2018-09-19T13:56:02.364Z,0.00
2018-09-19T13:57:02.035Z,0.00
2018-09-19T13:58:02.008Z,0.00
2018-09-19T13:59:02.322Z,0.00
2018-09-19T14:00:01.982Z,0.00
2018-09-19T14:01:01.974Z,0.00
2018-09-19T14:02:01.972Z,0.00
2018-09-19T14:03:02.289Z,0.00
2018-09-19T14:04:01.949Z,0.00
2018-09-19T14:05:01.950Z,0.00
2018-09-19T14:06:01.933Z,0.00
2018-09-19T14:07:01.922Z,0.00
2018-09-19T14:08:01.908Z,0.00
2018-09-19T14:09:01.907Z,0.00
2018-09-19T14:10:01.906Z,0.00
2018-09-19T14:11:01.895Z,0.00
2018-09-19T14:12:02.220Z,0.00
2018-09-19T14:13:01.878Z,0.00
2018-09-19T14:14:01.873Z,0.00
2018-09-19T14:15:02.208Z,0.00
2018-09-19T14:16:01.848Z,0.00
2018-09-19T14:17:01.839Z,0.00
2018-09-19T14:18:01.842Z,0.00
2018-09-19T14:19:01.821Z,0.00
2018-09-19T14:20:01.812Z,0.00
2018-09-19T14:21:01.815Z,0.00
2018-09-19T14:22:01.806Z,0.00
2018-09-19T14:23:01.821Z,0.00
2018-09-19T14:24:02.110Z,0.00
2018-09-19T14:25:01.778Z,0.00
2018-09-19T14:26:01.771Z,0.00
2018-09-19T14:27:01.756Z,0.00
2018-09-19T14:28:01.782Z,0.00
2018-09-19T14:29:02.079Z,0.00
2018-09-19T14:30:01.734Z,0.00
2018-09-19T14:31:01.726Z,0.00
2018-09-19T14:32:01.716Z,0.00
2018-09-19T14:33:01.702Z,0.00
2018-09-19T14:34:01.690Z,0.00
2018-09-19T14:35:01.684Z,0.00
2018-09-19T14:36:01.682Z,0.00
2018-09-19T14:37:01.669Z,0.00
2018-09-19T14:38:01.662Z,0.00
2018-09-19T14:39:01.992Z,0.00
2018-09-19T14:40:02.001Z,0.00
2018-09-19T14:41:01.645Z,0.00
2018-09-19T14:42:01.633Z,0.00
2018-09-19T14:43:01.621Z,0.00
2018-09-19T14:44:01.942Z,0.00
2018-09-19T14:45:01.619Z,0.00
2018-09-19T14:46:01.614Z,0.00
2018-09-19T14:47:01.591Z,0.00
2018-09-19T14:48:01.927Z,0.00
2018-09-19T14:49:01.570Z,0.00
2018-09-19T14:50:01.565Z,0.00
2018-09-19T14:51:01.560Z,0.00
2018-09-19T14:52:01.895Z,0.00
2018-09-19T14:53:01.552Z,0.00
2018-09-19T14:54:01.607Z,0.00
2018-09-19T14:55:01.851Z,0.00
2018-09-19T14:56:01.508Z,0.00
2018-09-19T14:57:01.843Z,0.00
2018-09-19T14:58:01.501Z,0.00